createdAt,value
2023-05-21T00:01:16.886Z,86.90
2023-05-21T00:03:46.088Z,87.80
2023-05-21T00:06:13.763Z,87.80
2023-05-21T00:08:41.306Z,88.10
2023-05-21T00:11:08.509Z,88.20
2023-05-21T00:13:35.521Z,87.90
2023-05-21T00:16:02.425Z,88.10
2023-05-21T00:18:32.214Z,87.50
2023-05-21T00:21:00.484Z,88.00
2023-05-21T00:23:27.758Z,88.30
2023-05-21T00:25:54.630Z,87.80
2023-05-21T00:28:21.522Z,87.90
2023-05-21T00:30:48.407Z,88.20
2023-05-21T00:33:15.692Z,88.00
2023-05-21T00:35:42.703Z,88.20
2023-05-21T00:38:09.599Z,87.80
2023-05-21T00:40:36.512Z,87.90
2023-05-21T00:43:03.423Z,87.50
2023-05-21T00:45:30.414Z,88.40
2023-05-21T00:47:57.755Z,88.30
2023-05-21T00:50:26.101Z,88.50
2023-05-21T00:52:53.314Z,88.30
2023-05-21T00:55:20.449Z,88.20
2023-05-21T00:57:47.560Z,88.30
2023-05-21T01:00:15.234Z,88.30
2023-05-21T01:02:44.192Z,88.10
2023-05-21T01:05:11.251Z,87.80
2023-05-21T01:07:41.404Z,87.40
2023-05-21T01:10:11.704Z,88.10
2023-05-21T01:12:41.663Z,87.80
2023-05-21T01:15:09.353Z,87.10
2023-05-21T01:17:36.392Z,86.80
2023-05-21T01:20:10.241Z,87.00
2023-05-21T01:22:53.895Z,87.10
2023-05-21T01:25:21.302Z,87.20
2023-05-21T01:27:49.050Z,88.40
2023-05-21T01:30:18.231Z,88.10
2023-05-21T01:32:51.040Z,88.30
2023-05-21T01:35:29.810Z,88.70
2023-05-21T01:38:13.608Z,88.30
2023-05-21T01:40:40.694Z,88.10
2023-05-21T01:43:09.412Z,88.50
2023-05-21T01:45:40.892Z,88.50
2023-05-21T01:48:09.281Z,88.70
2023-05-21T01:50:38.485Z,88.80
2023-05-21T01:53:06.073Z,89.60
2023-05-21T01:55:33.482Z,89.30
2023-05-21T01:58:02.430Z,89.40
2023-05-21T02:00:30.868Z,89.00
2023-05-21T02:02:58.754Z,90.30
2023-05-21T02:05:26.648Z,90.80
2023-05-21T02:07:56.983Z,91.00
2023-05-21T02:10:23.980Z,90.00
2023-05-21T02:12:50.935Z,89.60
2023-05-21T02:15:20.534Z,89.70
2023-05-21T02:17:47.408Z,89.70
2023-05-21T02:20:14.472Z,89.80
2023-05-21T02:22:43.422Z,88.50
2023-05-21T02:25:11.467Z,89.10
2023-05-21T02:27:39.513Z,88.20
2023-05-21T02:30:08.936Z,88.40
2023-05-21T02:32:36.555Z,89.20
2023-05-21T02:35:05.251Z,89.20
2023-05-21T02:37:35.452Z,89.90
2023-05-21T02:40:05.844Z,89.60
2023-05-21T02:42:32.848Z,89.70
2023-05-21T02:44:59.743Z,89.10
2023-05-21T02:47:26.753Z,89.80
2023-05-21T02:49:54.183Z,90.40
2023-05-21T02:52:24.530Z,90.30
2023-05-21T02:54:52.130Z,89.90
2023-05-21T02:57:19.304Z,89.80
2023-05-21T02:59:46.267Z,89.50
2023-05-21T03:02:13.213Z,89.00
2023-05-21T03:04:46.230Z,90.20
2023-05-21T03:07:20.143Z,90.20
2023-05-21T03:09:47.361Z,89.50
2023-05-21T03:12:14.440Z,90.30
2023-05-21T03:14:46.321Z,89.90
2023-05-21T03:17:17.062Z,88.90
2023-05-21T03:19:44.738Z,89.20
2023-05-21T03:22:12.019Z,89.60
2023-05-21T03:24:39.383Z,88.60
2023-05-21T03:27:06.957Z,88.60
2023-05-21T03:29:34.173Z,89.80
2023-05-21T03:32:02.074Z,90.20
2023-05-21T03:34:29.246Z,90.50
2023-05-21T03:36:56.074Z,90.90
2023-05-21T03:39:22.912Z,90.80
2023-05-21T03:41:49.820Z,91.00
2023-05-21T03:44:16.707Z,91.10
2023-05-21T03:46:45.440Z,90.70
2023-05-21T03:49:12.382Z,90.70
2023-05-21T03:51:39.607Z,89.60
2023-05-21T03:54:06.553Z,89.50
2023-05-21T03:56:33.502Z,89.40
2023-05-21T03:59:01.315Z,90.00
2023-05-21T04:01:28.489Z,89.40
2023-05-21T04:03:55.811Z,89.30
2023-05-21T04:06:22.920Z,89.80
2023-05-21T04:08:50.216Z,89.90
2023-05-21T04:11:17.185Z,89.50
2023-05-21T04:13:44.152Z,89.40
2023-05-21T04:16:14.581Z,89.00
2023-05-21T04:18:44.161Z,89.60
2023-05-21T04:21:12.707Z,90.30
2023-05-21T04:23:40.177Z,90.40
2023-05-21T04:26:07.830Z,90.40
2023-05-21T04:28:35.416Z,90.30
2023-05-21T04:31:02.769Z,90.70
2023-05-21T04:33:30.388Z,90.60
2023-05-21T04:35:57.819Z,90.70
2023-05-21T04:38:25.895Z,90.80
2023-05-21T04:40:53.207Z,90.80
2023-05-21T04:43:28.217Z,90.50
2023-05-21T04:45:55.418Z,90.30
2023-05-21T04:48:26.909Z,90.40
2023-05-21T04:50:54.106Z,90.10
2023-05-21T04:53:21.008Z,90.00
2023-05-21T04:55:48.074Z,89.50
2023-05-21T04:58:17.874Z,89.60
2023-05-21T05:00:50.935Z,89.50
2023-05-21T05:03:18.239Z,89.60
2023-05-21T05:05:45.717Z,89.70
2023-05-21T05:08:14.754Z,89.90
2023-05-21T05:10:42.902Z,89.50
2023-05-21T05:13:09.957Z,89.70
2023-05-21T05:15:37.166Z,89.70
2023-05-21T05:18:04.323Z,89.20
2023-05-21T05:20:31.183Z,89.10
2023-05-21T05:22:58.064Z,89.50
2023-05-21T05:25:24.980Z,89.20
2023-05-21T05:27:51.853Z,88.70
2023-05-21T05:30:20.118Z,89.00
2023-05-21T05:32:47.043Z,89.00
2023-05-21T05:35:13.908Z,88.90
2023-05-21T05:37:40.739Z,88.70
2023-05-21T05:40:08.122Z,89.00
2023-05-21T05:42:35.028Z,88.90
2023-05-21T05:45:01.897Z,88.80
2023-05-21T05:47:29.646Z,88.60
2023-05-21T05:49:56.669Z,88.40
2023-05-21T05:52:23.528Z,87.90
2023-05-21T05:54:50.353Z,88.10
2023-05-21T05:57:17.179Z,87.50
2023-05-21T05:59:44.011Z,87.70
2023-05-21T06:02:10.920Z,86.80
2023-05-21T06:04:37.773Z,86.80
2023-05-21T06:07:04.867Z,86.70
2023-05-21T06:09:31.758Z,86.00
2023-05-21T06:11:58.668Z,85.40
2023-05-21T06:14:25.718Z,86.10
2023-05-21T06:16:52.544Z,85.50
2023-05-21T06:19:20.060Z,85.90
2023-05-21T06:21:47.129Z,85.30
2023-05-21T06:24:13.975Z,85.50
2023-05-21T06:26:40.813Z,84.70
2023-05-21T06:29:07.807Z,85.10
2023-05-21T06:31:34.706Z,85.90
2023-05-21T06:34:01.849Z,85.80
2023-05-21T06:36:30.116Z,85.70
2023-05-21T06:38:57.417Z,85.10
2023-05-21T06:41:24.418Z,83.10
2023-05-21T06:43:51.592Z,84.10
2023-05-21T06:46:18.818Z,84.00
2023-05-21T06:48:48.533Z,83.40
2023-05-21T06:51:15.514Z,81.90
2023-05-21T06:53:42.335Z,82.80
2023-05-21T06:56:09.195Z,82.40
2023-05-21T06:58:36.092Z,82.30
2023-05-21T07:01:03.076Z,81.00
2023-05-21T07:03:30.220Z,80.90
2023-05-21T07:05:59.961Z,80.10
2023-05-21T07:08:27.257Z,79.30
2023-05-21T07:10:54.161Z,79.50
2023-05-21T07:13:20.982Z,77.60
2023-05-21T07:15:47.965Z,78.30
2023-05-21T07:18:15.283Z,77.10
2023-05-21T07:20:42.135Z,78.70
2023-05-21T07:23:08.948Z,77.90
2023-05-21T07:25:36.198Z,76.20
2023-05-21T07:28:05.196Z,73.20
2023-05-21T07:30:33.358Z,74.70
2023-05-21T07:33:00.194Z,74.20
2023-05-21T07:35:27.186Z,68.90
2023-05-21T07:37:54.034Z,70.50
2023-05-21T07:40:20.956Z,67.10
2023-05-21T07:42:48.056Z,66.90
2023-05-21T07:45:14.979Z,64.90
2023-05-21T07:47:42.493Z,66.90
2023-05-21T07:50:10.027Z,66.00
2023-05-21T07:52:36.893Z,67.70
2023-05-21T07:55:03.881Z,66.60
2023-05-21T07:57:30.732Z,64.80
2023-05-21T07:59:57.672Z,65.80
2023-05-21T08:02:24.621Z,64.20
2023-05-21T08:04:52.609Z,61.50
2023-05-21T08:07:21.444Z,63.40
2023-05-21T08:09:48.386Z,60.40
2023-05-21T08:12:16.051Z,62.00
2023-05-21T08:14:43.167Z,64.90
2023-05-21T08:17:11.486Z,60.30
2023-05-21T08:19:38.578Z,60.00
2023-05-21T08:22:08.319Z,59.80
2023-05-21T08:24:35.245Z,61.60
2023-05-21T08:27:02.137Z,59.90
2023-05-21T08:29:29.109Z,59.30
2023-05-21T08:31:56.430Z,59.80
2023-05-21T08:34:23.404Z,58.40
2023-05-21T08:36:50.452Z,56.70
2023-05-21T08:39:17.488Z,59.40
2023-05-21T08:41:49.696Z,61.00
2023-05-21T08:44:21.411Z,60.60
2023-05-21T08:46:51.151Z,61.80
2023-05-21T08:49:22.973Z,61.70
2023-05-21T08:51:51.428Z,62.00
2023-05-21T08:54:18.530Z,58.60
2023-05-21T08:56:47.165Z,59.00
2023-05-21T08:59:15.142Z,58.10
2023-05-21T09:01:42.416Z,56.30
2023-05-21T09:04:20.101Z,57.10
2023-05-21T09:06:48.498Z,60.30
2023-05-21T09:09:33.139Z,58.40
2023-05-21T09:12:00.108Z,54.70
2023-05-21T09:14:27.840Z,55.30
2023-05-21T09:16:54.767Z,55.50
2023-05-21T09:19:22.396Z,54.00
2023-05-21T09:21:51.916Z,57.00
2023-05-21T09:24:22.785Z,53.20
2023-05-21T09:26:49.874Z,53.20
2023-05-21T09:29:16.777Z,51.30
2023-05-21T09:31:46.941Z,53.90
2023-05-21T09:34:14.237Z,49.60
2023-05-21T09:36:41.170Z,50.90
2023-05-21T09:39:08.595Z,48.60
2023-05-21T09:41:36.786Z,49.00
2023-05-21T09:44:04.070Z,46.60
2023-05-21T09:46:42.969Z,48.50
2023-05-21T09:49:31.243Z,47.40
2023-05-21T09:51:59.015Z,45.80
2023-05-21T09:54:32.043Z,47.50
2023-05-21T09:57:02.102Z,46.60
2023-05-21T09:59:41.194Z,47.20
2023-05-21T10:02:23.355Z,47.10
2023-05-21T10:04:52.125Z,44.70
2023-05-21T10:07:27.072Z,44.20
2023-05-21T10:09:56.525Z,45.10
2023-05-21T10:12:27.614Z,43.60
2023-05-21T10:15:03.419Z,43.60
2023-05-21T10:17:31.486Z,44.20
2023-05-21T10:19:59.993Z,44.50
2023-05-21T10:22:28.153Z,44.30
2023-05-21T10:24:55.428Z,45.20
2023-05-21T10:27:23.257Z,44.30
2023-05-21T10:29:50.779Z,45.30
2023-05-21T10:32:18.290Z,44.20
2023-05-21T10:34:46.741Z,44.50
2023-05-21T10:37:13.923Z,45.10
2023-05-21T10:39:42.333Z,45.00
2023-05-21T10:42:33.340Z,45.20
2023-05-21T10:45:06.578Z,45.60
2023-05-21T10:47:54.206Z,47.40
2023-05-21T10:50:48.576Z,47.00
2023-05-21T10:53:33.831Z,43.80
2023-05-21T10:56:24.904Z,42.50
2023-05-21T10:59:18.295Z,43.70
2023-05-21T11:01:45.649Z,44.60
2023-05-21T11:04:15.774Z,46.10
2023-05-21T11:06:48.447Z,43.30
2023-05-21T11:09:16.083Z,44.60
2023-05-21T11:11:51.252Z,43.90
2023-05-21T11:14:32.617Z,45.20
2023-05-21T11:17:00.813Z,45.20
2023-05-21T11:19:42.209Z,46.10
2023-05-21T11:22:29.477Z,43.80
2023-05-21T11:25:01.144Z,45.30
2023-05-21T11:27:33.854Z,45.10
2023-05-21T11:30:10.356Z,43.40
2023-05-21T11:32:39.090Z,42.20
2023-05-21T11:35:06.868Z,42.50
2023-05-21T11:37:34.988Z,43.10
2023-05-21T11:40:26.150Z,45.50
2023-05-21T11:42:57.265Z,42.60
2023-05-21T11:45:31.389Z,41.50
2023-05-21T11:47:58.593Z,41.00
2023-05-21T11:50:25.904Z,42.40
2023-05-21T11:52:53.023Z,41.90
2023-05-21T11:55:25.840Z,44.40
2023-05-21T11:57:54.266Z,41.30
2023-05-21T12:00:21.651Z,42.00
2023-05-21T12:02:52.553Z,43.30
2023-05-21T12:05:19.731Z,42.40
2023-05-21T12:07:50.614Z,40.00
2023-05-21T12:10:21.422Z,41.30
2023-05-21T12:12:55.816Z,41.50
2023-05-21T12:15:24.791Z,41.20
2023-05-21T12:17:53.210Z,41.30
2023-05-21T12:20:20.913Z,43.80
2023-05-21T12:22:49.562Z,42.10
2023-05-21T12:25:20.119Z,40.00
2023-05-21T12:27:48.581Z,41.60
2023-05-21T12:30:15.791Z,40.60
2023-05-21T12:32:46.114Z,39.70
2023-05-21T12:35:24.289Z,41.90
2023-05-21T12:37:52.612Z,39.80
2023-05-21T12:40:20.206Z,42.60
2023-05-21T12:42:47.183Z,41.70
2023-05-21T12:45:14.647Z,41.40
2023-05-21T12:47:42.576Z,38.20
2023-05-21T12:50:13.977Z,37.20
2023-05-21T12:52:43.014Z,37.20
2023-05-21T12:55:13.012Z,36.80
2023-05-21T12:57:39.899Z,36.80
2023-05-21T13:00:07.936Z,37.30
2023-05-21T13:02:39.834Z,35.80
2023-05-21T13:05:15.287Z,37.40
2023-05-21T13:07:44.048Z,39.10
2023-05-21T13:10:12.262Z,36.30
2023-05-21T13:12:40.322Z,36.50
2023-05-21T13:15:08.493Z,37.20
2023-05-21T13:17:35.931Z,36.10
2023-05-21T13:20:08.908Z,34.90
2023-05-21T13:22:43.765Z,33.10
2023-05-21T13:25:12.018Z,33.40
2023-05-21T13:27:39.701Z,32.20
2023-05-21T13:30:07.956Z,34.00
2023-05-21T13:32:35.607Z,31.10
2023-05-21T13:35:02.628Z,31.20
2023-05-21T13:37:30.747Z,32.60
2023-05-21T13:39:58.112Z,33.40
2023-05-21T13:42:26.024Z,32.40
2023-05-21T13:44:52.898Z,32.80
2023-05-21T13:47:19.868Z,33.30
2023-05-21T13:49:46.922Z,33.10
2023-05-21T13:52:13.892Z,30.30
2023-05-21T13:54:42.017Z,32.90
2023-05-21T13:57:09.202Z,30.60
2023-05-21T13:59:36.110Z,32.40
2023-05-21T14:02:03.073Z,30.70
2023-05-21T14:04:30.250Z,31.80
2023-05-21T14:06:57.214Z,34.70
2023-05-21T14:09:27.112Z,33.40
2023-05-21T14:11:55.145Z,32.00
2023-05-21T14:14:22.693Z,30.70
2023-05-21T14:16:50.472Z,31.50
2023-05-21T14:19:17.737Z,31.90
2023-05-21T14:21:44.873Z,33.60
2023-05-21T14:24:11.849Z,31.70
2023-05-21T14:26:41.468Z,30.00
2023-05-21T14:29:08.869Z,29.30
2023-05-21T14:31:37.096Z,29.70
2023-05-21T14:34:05.200Z,29.30
2023-05-21T14:36:32.638Z,29.30
2023-05-21T14:38:59.717Z,27.40
2023-05-21T14:41:27.759Z,28.20
2023-05-21T14:43:54.729Z,30.50
2023-05-21T14:46:22.064Z,28.30
2023-05-21T14:48:48.968Z,27.10
2023-05-21T14:51:16.026Z,27.20
2023-05-21T14:53:42.899Z,29.20
2023-05-21T14:56:09.883Z,27.10
2023-05-21T14:58:36.734Z,31.00
2023-05-21T15:01:04.361Z,29.50
2023-05-21T15:03:31.571Z,29.60
2023-05-21T15:05:58.671Z,28.70
2023-05-21T15:08:25.837Z,28.70
2023-05-21T15:10:52.903Z,27.00
2023-05-21T15:13:21.278Z,27.90
2023-05-21T15:15:49.796Z,28.20
2023-05-21T15:18:19.648Z,29.20
2023-05-21T15:20:46.490Z,30.20
2023-05-21T15:23:17.242Z,27.40
2023-05-21T15:25:45.690Z,29.20
2023-05-21T15:28:12.868Z,30.90
2023-05-21T15:30:40.508Z,31.60
2023-05-21T15:33:07.567Z,29.80
2023-05-21T15:35:36.410Z,31.20
2023-05-21T15:38:03.784Z,29.60
2023-05-21T15:40:32.176Z,28.20
2023-05-21T15:42:59.376Z,32.10
2023-05-21T15:45:26.405Z,32.40
2023-05-21T15:47:53.338Z,30.70
2023-05-21T15:50:20.414Z,26.80
2023-05-21T15:52:47.283Z,28.10
2023-05-21T15:55:14.488Z,29.10
2023-05-21T15:57:41.485Z,26.60
2023-05-21T16:00:09.922Z,27.80
2023-05-21T16:02:37.151Z,28.70
2023-05-21T16:05:04.301Z,31.10
2023-05-21T16:07:31.517Z,28.10
2023-05-21T16:09:58.496Z,29.20
2023-05-21T16:12:25.772Z,30.20
2023-05-21T16:14:52.862Z,28.00
2023-05-21T16:17:19.970Z,29.10
2023-05-21T16:19:47.580Z,27.80
2023-05-21T16:22:15.075Z,27.30
2023-05-21T16:24:41.980Z,29.20
2023-05-21T16:27:08.835Z,28.30
2023-05-21T16:29:36.102Z,26.70
2023-05-21T16:32:03.880Z,27.60
2023-05-21T16:34:31.053Z,30.10
2023-05-21T16:36:58.697Z,31.60
2023-05-21T16:39:26.298Z,33.10
2023-05-21T16:41:55.154Z,31.90
2023-05-21T16:44:22.087Z,33.50
2023-05-21T16:46:48.954Z,32.00
2023-05-21T16:49:15.799Z,32.30
2023-05-21T16:51:42.678Z,31.50
2023-05-21T16:54:09.610Z,31.60
2023-05-21T16:56:36.604Z,31.50
2023-05-21T16:59:03.490Z,31.10
2023-05-21T17:01:30.448Z,33.00
2023-05-21T17:03:57.450Z,31.90
2023-05-21T17:06:24.570Z,30.80
2023-05-21T17:08:51.510Z,30.50
2023-05-21T17:11:18.381Z,32.90
2023-05-21T17:13:48.096Z,36.90
2023-05-21T17:16:15.325Z,35.90
2023-05-21T17:18:42.289Z,37.20
2023-05-21T17:21:09.859Z,38.20
2023-05-21T17:23:36.752Z,40.00
2023-05-21T17:26:03.675Z,41.40
2023-05-21T17:28:30.608Z,42.40
2023-05-21T17:30:57.987Z,43.50
2023-05-21T17:33:25.151Z,43.40
2023-05-21T17:35:52.036Z,44.40
2023-05-21T17:38:18.891Z,45.30
2023-05-21T17:40:45.841Z,44.90
2023-05-21T17:43:12.734Z,45.10
2023-05-21T17:45:40.036Z,45.00
2023-05-21T17:48:07.135Z,46.20
2023-05-21T17:50:34.292Z,46.10
2023-05-21T17:53:01.250Z,46.00
2023-05-21T17:55:28.152Z,46.60
2023-05-21T17:57:55.135Z,45.90
2023-05-21T18:00:22.052Z,46.50
2023-05-21T18:02:49.049Z,46.70
2023-05-21T18:05:16.142Z,47.30
2023-05-21T18:07:43.048Z,47.40
2023-05-21T18:10:10.186Z,47.10
2023-05-21T18:12:37.033Z,47.30
2023-05-21T18:15:04.117Z,48.00
2023-05-21T18:17:32.437Z,48.00
2023-05-21T18:19:59.314Z,48.60
2023-05-21T18:22:26.174Z,48.10
2023-05-21T18:24:53.052Z,48.80
2023-05-21T18:27:19.960Z,49.70
2023-05-21T18:29:48.956Z,50.20
2023-05-21T18:32:16.700Z,50.60
2023-05-21T18:34:43.952Z,50.00
2023-05-21T18:37:11.471Z,50.80
2023-05-21T18:39:38.370Z,51.10
2023-05-21T18:44:39.030Z,52.00
2023-05-21T18:47:07.604Z,51.30
2023-05-21T18:49:35.931Z,51.30
2023-05-21T18:52:04.039Z,52.30
2023-05-21T18:54:31.814Z,51.50
2023-05-21T18:57:00.422Z,53.30
2023-05-21T18:59:28.710Z,54.10
2023-05-21T19:01:55.755Z,54.10
2023-05-21T19:04:22.830Z,53.70
2023-05-21T19:06:49.735Z,53.50
2023-05-21T19:09:16.862Z,53.90
2023-05-21T19:11:43.749Z,53.70
2023-05-21T19:14:10.680Z,52.90
2023-05-21T19:16:37.578Z,53.50
2023-05-21T19:19:04.510Z,55.00
2023-05-21T19:21:31.720Z,54.70
2023-05-21T19:23:58.945Z,53.90
2023-05-21T19:26:25.774Z,54.10
2023-05-21T19:28:55.590Z,54.40
2023-05-21T19:31:23.260Z,54.90
2023-05-21T19:33:50.641Z,55.20
2023-05-21T19:36:18.625Z,55.40
2023-05-21T19:38:48.092Z,56.40
2023-05-21T19:41:16.376Z,55.70
2023-05-21T19:43:43.335Z,56.40
2023-05-21T19:46:10.479Z,58.60
2023-05-21T19:48:37.403Z,58.10
2023-05-21T19:51:04.441Z,58.00
2023-05-21T19:53:31.321Z,60.20
2023-05-21T19:55:58.242Z,62.60
2023-05-21T19:58:26.925Z,64.90
2023-05-21T20:00:59.231Z,65.90
2023-05-21T20:03:27.123Z,66.10
2023-05-21T20:05:54.529Z,65.50
2023-05-21T20:08:21.669Z,67.30
2023-05-21T20:10:51.372Z,68.50
2023-05-21T20:13:19.246Z,67.00
2023-05-21T20:15:47.814Z,66.00
2023-05-21T20:18:15.469Z,68.60
2023-05-21T20:20:43.358Z,69.80
2023-05-21T20:23:10.461Z,68.60
2023-05-21T20:25:37.352Z,69.70
2023-05-21T20:28:05.299Z,70.20
2023-05-21T20:30:34.149Z,68.50
2023-05-21T20:33:02.284Z,69.60
2023-05-21T20:35:30.455Z,70.50
2023-05-21T20:37:57.608Z,71.00
2023-05-21T20:40:24.797Z,71.70
2023-05-21T20:42:53.507Z,72.40
2023-05-21T20:45:21.967Z,71.80
2023-05-21T20:47:49.908Z,73.80
2023-05-21T20:50:25.750Z,73.50
2023-05-21T20:52:52.657Z,74.60
2023-05-21T20:55:20.775Z,76.20
2023-05-21T20:57:47.684Z,76.90
2023-05-21T21:00:16.149Z,77.00
2023-05-21T21:02:43.802Z,78.80
2023-05-21T21:05:11.387Z,78.10
2023-05-21T21:07:38.304Z,78.70
2023-05-21T21:10:05.907Z,78.60
2023-05-21T21:12:32.818Z,79.60
2023-05-21T21:14:59.694Z,78.90
2023-05-21T21:17:26.637Z,79.00
2023-05-21T21:19:53.536Z,78.90
2023-05-21T21:22:20.944Z,79.60
2023-05-21T21:24:48.043Z,80.90
2023-05-21T21:27:14.995Z,80.70
2023-05-21T21:29:41.960Z,80.90
2023-05-21T21:32:08.846Z,81.30
2023-05-21T21:34:35.905Z,81.30
2023-05-21T21:37:02.859Z,80.50
2023-05-21T21:39:29.701Z,80.70
2023-05-21T21:41:56.629Z,80.90
2023-05-21T21:44:23.631Z,80.80
2023-05-21T21:46:50.498Z,80.80
2023-05-21T21:49:17.612Z,80.50
2023-05-21T21:51:44.849Z,80.70
2023-05-21T21:54:12.018Z,81.40
2023-05-21T21:56:38.874Z,81.50
2023-05-21T21:59:05.876Z,81.70
2023-05-21T22:01:33.138Z,81.40
2023-05-21T22:04:00.059Z,80.80
2023-05-21T22:06:27.711Z,82.30
2023-05-21T22:08:55.001Z,80.80
2023-05-21T22:11:22.709Z,81.30
2023-05-21T22:13:49.667Z,81.30
2023-05-21T22:16:16.576Z,81.50
2023-05-21T22:18:43.703Z,82.20
2023-05-21T22:21:14.105Z,82.70
2023-05-21T22:23:41.332Z,82.90
2023-05-21T22:26:09.230Z,83.00
2023-05-21T22:28:36.138Z,82.80
2023-05-21T22:31:03.382Z,83.60
2023-05-21T22:33:30.679Z,83.10
2023-05-21T22:35:58.110Z,82.80
2023-05-21T22:38:25.824Z,82.00
2023-05-21T22:40:52.784Z,82.50
2023-05-21T22:43:19.837Z,82.40
2023-05-21T22:45:46.971Z,83.10
2023-05-21T22:48:14.308Z,83.80
2023-05-21T22:50:41.391Z,83.70
2023-05-21T22:53:08.578Z,84.30
2023-05-21T22:55:35.483Z,84.30
2023-05-21T22:58:02.378Z,84.40
2023-05-21T23:00:29.624Z,84.40
2023-05-21T23:02:56.692Z,84.00
2023-05-21T23:05:23.933Z,84.60
2023-05-21T23:07:51.081Z,84.60
2023-05-21T23:10:18.030Z,83.90
2023-05-21T23:12:44.891Z,84.50
2023-05-21T23:15:11.980Z,84.50
2023-05-21T23:17:38.920Z,84.20
2023-05-21T23:20:07.348Z,84.40
2023-05-21T23:22:34.893Z,84.30
2023-05-21T23:25:02.224Z,84.70
2023-05-21T23:27:29.506Z,84.60
2023-05-21T23:29:56.510Z,84.50
2023-05-21T23:32:23.869Z,85.00
2023-05-21T23:34:50.946Z,84.50
2023-05-21T23:37:18.618Z,85.20
2023-05-21T23:39:49.303Z,85.50
2023-05-21T23:42:17.413Z,84.80
2023-05-21T23:44:44.544Z,84.70
2023-05-21T23:47:11.405Z,85.00
2023-05-21T23:49:38.910Z,85.10
2023-05-21T23:52:06.265Z,84.90
2023-05-21T23:54:33.130Z,85.30
2023-05-21T23:56:59.994Z,85.60
2023-05-21T23:59:26.903Z,85.50
